Tarrawarra, Victoria

5:02 AM AEST on April 26, 2015 (GMT +1000)
Coldstream Estate | | Change Station
CLOSE
Current Station
Personal Weather Station
Location: Coldstream, Victoria
Elevation: 300 ft
Nearby Weather Stations

Elev 300 ft 37.73 °S, 145.38 °E | Updated 3 seconds ago

Mostly Cloudy
Mostly Cloudy
51.7 °F
Feels Like 51.7 °F
N
0.0
Wind Variable Wind from ESE
Gusts 0.0 mph

Today
High -- | Low -- °F
--% Chance of Precip.
Yesterday
High -- | Low -- °F
Precip. -- in
6:53 AM 5:38 PM
Waxing Crescent, 48% visible
Pressure 29.98 in
Visibility 6.2 miles
Clouds Few 1500 ft
Mostly Cloudy 3900 ft
Dew Point 48 °F
Humidity 88%
Rainfall 0.25 in
Snow Depth Not available.
UV 0 out of 12
Pollen Not available.
Air Quality Not available.
Flu Activity Not available.
METAR YMML 251830Z 24012KT 9999 FEW015 BKN039 10/08 Q1015 NOSIG

More Conditions Fewer Conditions

Pressure 29.98 in
Visibility 6.2 miles
Clouds Few 1500 ft
Mostly Cloudy 3900 ft
Dew Point 48 °F
Humidity 88%
Rainfall 0.25 in
Snow Depth Not available.
UV 0 out of 12
Pollen Not available.
Air Quality Not available.
Flu Activity Not available.
METAR YMML 251830Z 24012KT 9999 FEW015 BKN039 10/08 Q1015 NOSIG

More Conditions Fewer Conditions

10-Day Weather Forecast

Almanac

Astronomy

Apr. 26, 2015 Rise Set
Actual Time
Civil Twilight
Nautical Twilight
Astronomical Twilight
Moon
Length of Visible Light
Length of Day
Tomorrow will be .
, % of the Moon is Illuminated

Today's Extremes

Country Highs Country Lows

Community

WunderPhotos

Upload Photos

1,816,768 photos uploaded!

WunderBlogs® & News

Nearby

Air Quality

  Air Quality AQ Index Pollutant
Not available.

Snow Depth

Station Depth Elevation

Earthquake Activity

City Distance Mag. Time & Date
Minimum magnitude displayed is 2.5.

Coastal Water Temperatures

Place Temperature

Stations

Nearby Weather Stations

Station Location Temp. Windchill Dew Point Humidity Wind Precip. Elev Updated Type